aviador You're here:

YPAD Decoded Metar

ADELAIDE in AUSTRALIA
Report Time2018-01-16 21:00:00
UTC Time2018-01-16 21:22:30
Flight Rules vfr VFR
Wind350° at 06 kt
W.Decomp.*RWY 30: 4.5 kt HW 4.0 kt RCW
RWY 05: 2.2 kt HW 5.6 kt LCW
W.Rank350° ranks 23
Current wind is below 350° avg. (10.4)
Visibility9999 m
Phenomena:N/A
Clouds:N/A
Expected CloudBase > 3,600 ft AGL from Temp-Dew spread
CeilingNone
Temp22°C (ISA +7)
Dew Point13°C (57% RH)
AAT20.8°C
QNH1014 hPa
Density Alt997 ft
Elevation13 ft
Report Wrong Elevation
Raw Report
METAR YPAD 162100Z 35006KT CAVOK 22/13 Q1014
NOSIG=

Extra information for YPAD:More info

Metar Taf Metar & Taf Last 4 Metars F.Rules Stats Wind Profile Meteogram Temp Stats Airport Information Weather charts Add Link Nearby VenuesMetar ALERT Operation Metar Decoded Social comments

Adelaide Airport Webcam